sensor_id;sensor_type;location;lat;lon;timestamp;pressure;altitude;pressure_sealevel;temperature
18219;BMP180;9234;49.344;11.120;2023-02-26T00:01:55;96857.00;;;0.80
18219;BMP180;9234;49.344;11.120;2023-02-26T00:04:27;96863.00;;;0.80
18219;BMP180;9234;49.344;11.120;2023-02-26T00:06:55;96871.00;;;0.90
18219;BMP180;9234;49.344;11.120;2023-02-26T00:09:26;96869.00;;;0.80
18219;BMP180;9234;49.344;11.120;2023-02-26T00:11:57;96871.00;;;0.80
18219;BMP180;9234;49.344;11.120;2023-02-26T00:14:26;96869.00;;;0.80
18219;BMP180;9234;49.344;11.120;2023-02-26T00:17:21;96868.00;;;0.80
18219;BMP180;9234;49.344;11.120;2023-02-26T00:19:53;96875.00;;;0.70
18219;BMP180;9234;49.344;11.120;2023-02-26T00:22:22;96866.00;;;0.80
18219;BMP180;9234;49.344;11.120;2023-02-26T00:24:50;96866.00;;;0.80
18219;BMP180;9234;49.344;11.120;2023-02-26T00:27:19;96875.00;;;0.80
18219;BMP180;9234;49.344;11.120;2023-02-26T00:29:49;96886.00;;;0.80
18219;BMP180;9234;49.344;11.120;2023-02-26T00:32:18;96873.00;;;0.80
18219;BMP180;9234;49.344;11.120;2023-02-26T00:34:47;96887.00;;;0.80
18219;BMP180;9234;49.344;11.120;2023-02-26T00:37:30;96880.00;;;0.80
18219;BMP180;9234;49.344;11.120;2023-02-26T00:40:15;96872.00;;;0.70
18219;BMP180;9234;49.344;11.120;2023-02-26T00:42:49;96895.00;;;0.70
18219;BMP180;9234;49.344;11.120;2023-02-26T00:45:19;96882.00;;;0.60
18219;BMP180;9234;49.344;11.120;2023-02-26T00:47:53;96879.00;;;0.50
18219;BMP180;9234;49.344;11.120;2023-02-26T00:50:25;96885.00;;;0.50
18219;BMP180;9234;49.344;11.120;2023-02-26T00:53:05;96898.00;;;0.40
18219;BMP180;9234;49.344;11.120;2023-02-26T00:55:36;96898.00;;;0.40
18219;BMP180;9234;49.344;11.120;2023-02-26T00:58:06;96899.00;;;0.30
18219;BMP180;9234;49.344;11.120;2023-02-26T01:00:34;96891.00;;;0.30
18219;BMP180;9234;49.344;11.120;2023-02-26T01:03:03;96889.00;;;0.20
18219;BMP180;9234;49.344;11.120;2023-02-26T01:05:32;96889.00;;;0.20
18219;BMP180;9234;49.344;11.120;2023-02-26T01:08:09;96874.00;;;0.10
18219;BMP180;9234;49.344;11.120;2023-02-26T01:10:41;96895.00;;;0.10
18219;BMP180;9234;49.344;11.120;2023-02-26T01:13:12;96890.00;;;0.00
18219;BMP180;9234;49.344;11.120;2023-02-26T01:15:47;96877.00;;;0.00
18219;BMP180;9234;49.344;11.120;2023-02-26T01:18:23;96878.00;;;-0.10
18219;BMP180;9234;49.344;11.120;2023-02-26T01:20:57;96880.00;;;-0.10
18219;BMP180;9234;49.344;11.120;2023-02-26T01:23:31;96894.00;;;-0.10
18219;BMP180;9234;49.344;11.120;2023-02-26T01:26:05;96886.00;;;-0.20
18219;BMP180;9234;49.344;11.120;2023-02-26T01:28:37;96886.00;;;-0.20
18219;BMP180;9234;49.344;11.120;2023-02-26T01:31:17;96890.00;;;-0.20
18219;BMP180;9234;49.344;11.120;2023-02-26T01:33:57;96898.00;;;-0.30
18219;BMP180;9234;49.344;11.120;2023-02-26T01:36:32;96887.00;;;-0.30
18219;BMP180;9234;49.344;11.120;2023-02-26T01:39:10;96895.00;;;-0.30
18219;BMP180;9234;49.344;11.120;2023-02-26T01:41:45;96888.00;;;-0.40
18219;BMP180;9234;49.344;11.120;2023-02-26T01:44:24;96889.00;;;-0.40
18219;BMP180;9234;49.344;11.120;2023-02-26T01:47:11;96878.00;;;-0.40
18219;BMP180;9234;49.344;11.120;2023-02-26T01:49:43;96881.00;;;-0.50
18219;BMP180;9234;49.344;11.120;2023-02-26T01:55:31;96876.00;;;-0.60
18219;BMP180;9234;49.344;11.120;2023-02-26T01:58:01;96887.00;;;-0.70
18219;BMP180;9234;49.344;11.120;2023-02-26T02:00:31;96898.00;;;-0.70
18219;BMP180;9234;49.344;11.120;2023-02-26T02:02:59;96903.00;;;-0.70
18219;BMP180;9234;49.344;11.120;2023-02-26T02:05:32;96904.00;;;-0.80
18219;BMP180;9234;49.344;11.120;2023-02-26T02:08:02;96901.00;;;-0.80
18219;BMP180;9234;49.344;11.120;2023-02-26T02:10:31;96911.00;;;-0.80
18219;BMP180;9234;49.344;11.120;2023-02-26T02:13:10;96911.00;;;-0.80
18219;BMP180;9234;49.344;11.120;2023-02-26T02:15:53;96904.00;;;-0.90
18219;BMP180;9234;49.344;11.120;2023-02-26T02:18:37;96904.00;;;-0.90
18219;BMP180;9234;49.344;11.120;2023-02-26T02:21:43;96901.00;;;-1.00
18219;BMP180;9234;49.344;11.120;2023-02-26T02:24:22;96915.00;;;-1.00
18219;BMP180;9234;49.344;11.120;2023-02-26T02:27:03;96919.00;;;-1.00
18219;BMP180;9234;49.344;11.120;2023-02-26T02:30:06;96915.00;;;-1.10
18219;BMP180;9234;49.344;11.120;2023-02-26T02:32:45;96907.00;;;-1.10
18219;BMP180;9234;49.344;11.120;2023-02-26T02:35:23;96920.00;;;-1.20
18219;BMP180;9234;49.344;11.120;2023-02-26T02:37:59;96925.00;;;-1.20
18219;BMP180;9234;49.344;11.120;2023-02-26T02:40:35;96944.00;;;-1.20
18219;BMP180;9234;49.344;11.120;2023-02-26T02:43:10;96938.00;;;-1.20
18219;BMP180;9234;49.344;11.120;2023-02-26T02:45:46;96929.00;;;-1.30
18219;BMP180;9234;49.344;11.120;2023-02-26T02:48:23;96936.00;;;-1.30
18219;BMP180;9234;49.344;11.120;2023-02-26T02:50:58;96935.00;;;-1.30
18219;BMP180;9234;49.344;11.120;2023-02-26T02:53:34;96936.00;;;-1.40
18219;BMP180;9234;49.344;11.120;2023-02-26T02:56:08;96944.00;;;-1.40
18219;BMP180;9234;49.344;11.120;2023-02-26T02:58:42;96934.00;;;-1.40
18219;BMP180;9234;49.344;11.120;2023-02-26T03:01:18;96948.00;;;-1.40
18219;BMP180;9234;49.344;11.120;2023-02-26T03:03:56;96941.00;;;-1.50
18219;BMP180;9234;49.344;11.120;2023-02-26T03:06:25;96939.00;;;-1.50
18219;BMP180;9234;49.344;11.120;2023-02-26T03:08:54;96938.00;;;-1.50
18219;BMP180;9234;49.344;11.120;2023-02-26T03:11:22;96948.00;;;-1.50
18219;BMP180;9234;49.344;11.120;2023-02-26T03:13:52;96953.00;;;-1.40
18219;BMP180;9234;49.344;11.120;2023-02-26T03:16:48;96949.00;;;-1.40
18219;BMP180;9234;49.344;11.120;2023-02-26T03:19:29;96946.00;;;-1.40
18219;BMP180;9234;49.344;11.120;2023-02-26T03:22:06;96954.00;;;-1.40
18219;BMP180;9234;49.344;11.120;2023-02-26T03:25:03;96953.00;;;-1.40
18219;BMP180;9234;49.344;11.120;2023-02-26T03:27:42;96950.00;;;-1.40
18219;BMP180;9234;49.344;11.120;2023-02-26T03:30:19;96964.00;;;-1.40
18219;BMP180;9234;49.344;11.120;2023-02-26T03:32:56;96965.00;;;-1.40
18219;BMP180;9234;49.344;11.120;2023-02-26T03:35:36;96965.00;;;-1.40
18219;BMP180;9234;49.344;11.120;2023-02-26T03:38:11;96969.00;;;-1.40
18219;BMP180;9234;49.344;11.120;2023-02-26T03:40:44;96978.00;;;-1.40
18219;BMP180;9234;49.344;11.120;2023-02-26T03:43:19;96969.00;;;-1.40
18219;BMP180;9234;49.344;11.120;2023-02-26T03:45:57;96967.00;;;-1.40
18219;BMP180;9234;49.344;11.120;2023-02-26T03:48:29;96980.00;;;-1.40
18219;BMP180;9234;49.344;11.120;2023-02-26T03:51:05;96980.00;;;-1.50
18219;BMP180;9234;49.344;11.120;2023-02-26T03:53:56;96984.00;;;-1.50
18219;BMP180;9234;49.344;11.120;2023-02-26T03:56:33;96984.00;;;-1.60
18219;BMP180;9234;49.344;11.120;2023-02-26T03:59:41;96991.00;;;-1.60
18219;BMP180;9234;49.344;11.120;2023-02-26T04:02:40;96997.00;;;-1.70
18219;BMP180;9234;49.344;11.120;2023-02-26T04:05:18;97017.00;;;-1.70
18219;BMP180;9234;49.344;11.120;2023-02-26T04:07:49;97000.00;;;-1.70
18219;BMP180;9234;49.344;11.120;2023-02-26T04:10:23;97005.00;;;-1.70
18219;BMP180;9234;49.344;11.120;2023-02-26T04:12:52;97018.00;;;-1.70
18219;BMP180;9234;49.344;11.120;2023-02-26T04:15:20;97030.00;;;-1.70
18219;BMP180;9234;49.344;11.120;2023-02-26T04:17:49;97025.00;;;-1.70
18219;BMP180;9234;49.344;11.120;2023-02-26T04:20:17;97030.00;;;-1.60
18219;BMP180;9234;49.344;11.120;2023-02-26T04:22:45;97031.00;;;-1.50
18219;BMP180;9234;49.344;11.120;2023-02-26T04:25:15;97027.00;;;-1.40
18219;BMP180;9234;49.344;11.120;2023-02-26T04:27:43;97027.00;;;-1.30
18219;BMP180;9234;49.344;11.120;2023-02-26T04:30:12;97031.00;;;-1.20
18219;BMP180;9234;49.344;11.120;2023-02-26T04:32:40;97037.00;;;-1.10
18219;BMP180;9234;49.344;11.120;2023-02-26T04:35:10;97029.00;;;-1.10
18219;BMP180;9234;49.344;11.120;2023-02-26T04:37:38;97035.00;;;-1.00
18219;BMP180;9234;49.344;11.120;2023-02-26T04:40:08;97030.00;;;-1.00
18219;BMP180;9234;49.344;11.120;2023-02-26T04:42:38;97031.00;;;-0.90
18219;BMP180;9234;49.344;11.120;2023-02-26T04:45:07;97054.00;;;-0.90
18219;BMP180;9234;49.344;11.120;2023-02-26T04:47:37;97057.00;;;-0.90
18219;BMP180;9234;49.344;11.120;2023-02-26T04:50:08;97064.00;;;-0.80
18219;BMP180;9234;49.344;11.120;2023-02-26T04:52:36;97055.00;;;-0.80
18219;BMP180;9234;49.344;11.120;2023-02-26T04:55:06;97050.00;;;-0.80
18219;BMP180;9234;49.344;11.120;2023-02-26T04:57:38;97055.00;;;-0.80
18219;BMP180;9234;49.344;11.120;2023-02-26T05:00:10;97065.00;;;-0.90
18219;BMP180;9234;49.344;11.120;2023-02-26T05:02:39;97061.00;;;-0.90
18219;BMP180;9234;49.344;11.120;2023-02-26T05:05:08;97074.00;;;-0.90
18219;BMP180;9234;49.344;11.120;2023-02-26T05:07:36;97078.00;;;-1.00
18219;BMP180;9234;49.344;11.120;2023-02-26T05:10:06;97068.00;;;-1.00
18219;BMP180;9234;49.344;11.120;2023-02-26T05:12:35;97067.00;;;-1.00
18219;BMP180;9234;49.344;11.120;2023-02-26T05:15:06;97070.00;;;-1.00
18219;BMP180;9234;49.344;11.120;2023-02-26T05:17:35;97069.00;;;-1.00
18219;BMP180;9234;49.344;11.120;2023-02-26T05:20:05;97080.00;;;-1.00
18219;BMP180;9234;49.344;11.120;2023-02-26T05:22:36;97082.00;;;-0.90
18219;BMP180;9234;49.344;11.120;2023-02-26T05:25:06;97091.00;;;-0.90
18219;BMP180;9234;49.344;11.120;2023-02-26T05:27:35;97089.00;;;-0.90
18219;BMP180;9234;49.344;11.120;2023-02-26T05:30:06;97093.00;;;-0.90
18219;BMP180;9234;49.344;11.120;2023-02-26T05:32:36;97087.00;;;-0.90
18219;BMP180;9234;49.344;11.120;2023-02-26T05:35:05;97088.00;;;-0.90
18219;BMP180;9234;49.344;11.120;2023-02-26T05:37:33;97098.00;;;-0.80
18219;BMP180;9234;49.344;11.120;2023-02-26T05:40:03;97089.00;;;-0.80
18219;BMP180;9234;49.344;11.120;2023-02-26T05:42:31;97081.00;;;-0.80
18219;BMP180;9234;49.344;11.120;2023-02-26T05:44:59;97094.00;;;-0.70
18219;BMP180;9234;49.344;11.120;2023-02-26T05:47:29;97096.00;;;-0.70
18219;BMP180;9234;49.344;11.120;2023-02-26T05:49:57;97101.00;;;-0.70
18219;BMP180;9234;49.344;11.120;2023-02-26T05:52:25;97089.00;;;-0.70
18219;BMP180;9234;49.344;11.120;2023-02-26T05:54:54;97108.00;;;-0.60
18219;BMP180;9234;49.344;11.120;2023-02-26T05:57:23;97104.00;;;-0.60
18219;BMP180;9234;49.344;11.120;2023-02-26T05:59:51;97098.00;;;-0.60
18219;BMP180;9234;49.344;11.120;2023-02-26T06:02:20;97085.00;;;-0.50
18219;BMP180;9234;49.344;11.120;2023-02-26T06:04:49;97120.00;;;-0.50
18219;BMP180;9234;49.344;11.120;2023-02-26T06:07:17;97114.00;;;-0.50
18219;BMP180;9234;49.344;11.120;2023-02-26T06:09:46;97125.00;;;-0.50
18219;BMP180;9234;49.344;11.120;2023-02-26T06:12:14;97121.00;;;-0.40
18219;BMP180;9234;49.344;11.120;2023-02-26T06:14:42;97139.00;;;-0.40
18219;BMP180;9234;49.344;11.120;2023-02-26T06:17:10;97128.00;;;-0.40
18219;BMP180;9234;49.344;11.120;2023-02-26T06:19:39;97117.00;;;-0.40
18219;BMP180;9234;49.344;11.120;2023-02-26T06:22:08;97134.00;;;-0.40
18219;BMP180;9234;49.344;11.120;2023-02-26T06:24:36;97128.00;;;-0.30
18219;BMP180;9234;49.344;11.120;2023-02-26T06:27:05;97133.00;;;-0.30
18219;BMP180;9234;49.344;11.120;2023-02-26T06:29:34;97138.00;;;-0.30
18219;BMP180;9234;49.344;11.120;2023-02-26T06:32:05;97132.00;;;-0.30
18219;BMP180;9234;49.344;11.120;2023-02-26T06:34:34;97140.00;;;-0.30
18219;BMP180;9234;49.344;11.120;2023-02-26T06:37:02;97134.00;;;-0.20
18219;BMP180;9234;49.344;11.120;2023-02-26T06:39:32;97146.00;;;-0.20
18219;BMP180;9234;49.344;11.120;2023-02-26T06:42:01;97150.00;;;-0.30
18219;BMP180;9234;49.344;11.120;2023-02-26T06:44:29;97151.00;;;-0.30
18219;BMP180;9234;49.344;11.120;2023-02-26T06:46:57;97157.00;;;-0.30
18219;BMP180;9234;49.344;11.120;2023-02-26T06:49:25;97160.00;;;-0.30
18219;BMP180;9234;49.344;11.120;2023-02-26T06:51:54;97164.00;;;-0.30
18219;BMP180;9234;49.344;11.120;2023-02-26T06:54:22;97191.00;;;-0.30
18219;BMP180;9234;49.344;11.120;2023-02-26T06:56:52;97185.00;;;-0.30
18219;BMP180;9234;49.344;11.120;2023-02-26T06:59:23;97177.00;;;-0.40
18219;BMP180;9234;49.344;11.120;2023-02-26T07:01:52;97201.00;;;-0.40
18219;BMP180;9234;49.344;11.120;2023-02-26T07:04:20;97203.00;;;-0.40
18219;BMP180;9234;49.344;11.120;2023-02-26T07:06:48;97210.00;;;-0.40
18219;BMP180;9234;49.344;11.120;2023-02-26T07:09:16;97206.00;;;-0.40
18219;BMP180;9234;49.344;11.120;2023-02-26T07:11:46;97198.00;;;-0.40
18219;BMP180;9234;49.344;11.120;2023-02-26T07:14:15;97213.00;;;-0.40
18219;BMP180;9234;49.344;11.120;2023-02-26T07:16:43;97218.00;;;-0.40
18219;BMP180;9234;49.344;11.120;2023-02-26T07:19:12;97215.00;;;-0.40
18219;BMP180;9234;49.344;11.120;2023-02-26T07:21:40;97229.00;;;-0.30
18219;BMP180;9234;49.344;11.120;2023-02-26T07:24:08;97226.00;;;-0.30
18219;BMP180;9234;49.344;11.120;2023-02-26T07:26:36;97211.00;;;-0.30
18219;BMP180;9234;49.344;11.120;2023-02-26T07:29:05;97226.00;;;-0.20
18219;BMP180;9234;49.344;11.120;2023-02-26T07:31:35;97244.00;;;-0.10
18219;BMP180;9234;49.344;11.120;2023-02-26T07:34:03;97245.00;;;-0.10
18219;BMP180;9234;49.344;11.120;2023-02-26T07:36:32;97248.00;;;0.00
18219;BMP180;9234;49.344;11.120;2023-02-26T07:39:00;97257.00;;;0.10
18219;BMP180;9234;49.344;11.120;2023-02-26T07:41:28;97259.00;;;0.20
18219;BMP180;9234;49.344;11.120;2023-02-26T07:43:57;97238.00;;;0.30
18219;BMP180;9234;49.344;11.120;2023-02-26T07:46:25;97234.00;;;0.30
18219;BMP180;9234;49.344;11.120;2023-02-26T07:48:55;97228.00;;;0.40
18219;BMP180;9234;49.344;11.120;2023-02-26T07:51:23;97248.00;;;0.50
18219;BMP180;9234;49.344;11.120;2023-02-26T07:53:52;97265.00;;;0.60
18219;BMP180;9234;49.344;11.120;2023-02-26T07:56:20;97259.00;;;0.70
18219;BMP180;9234;49.344;11.120;2023-02-26T07:58:48;97256.00;;;0.80
18219;BMP180;9234;49.344;11.120;2023-02-26T08:01:16;97263.00;;;0.90
18219;BMP180;9234;49.344;11.120;2023-02-26T08:03:45;97257.00;;;0.90
18219;BMP180;9234;49.344;11.120;2023-02-26T08:06:14;97255.00;;;1.00
18219;BMP180;9234;49.344;11.120;2023-02-26T08:08:42;97272.00;;;1.00
18219;BMP180;9234;49.344;11.120;2023-02-26T08:11:10;97268.00;;;1.00
18219;BMP180;9234;49.344;11.120;2023-02-26T08:13:39;97286.00;;;1.00
18219;BMP180;9234;49.344;11.120;2023-02-26T08:16:07;97291.00;;;1.10
18219;BMP180;9234;49.344;11.120;2023-02-26T08:18:36;97278.00;;;1.10
18219;BMP180;9234;49.344;11.120;2023-02-26T08:21:04;97277.00;;;1.10
18219;BMP180;9234;49.344;11.120;2023-02-26T08:23:34;97294.00;;;1.10
18219;BMP180;9234;49.344;11.120;2023-02-26T08:26:05;97301.00;;;1.00
18219;BMP180;9234;49.344;11.120;2023-02-26T08:28:34;97309.00;;;1.00
18219;BMP180;9234;49.344;11.120;2023-02-26T08:31:04;97297.00;;;1.00
18219;BMP180;9234;49.344;11.120;2023-02-26T08:33:33;97302.00;;;1.10
18219;BMP180;9234;49.344;11.120;2023-02-26T08:36:01;97312.00;;;1.20
18219;BMP180;9234;49.344;11.120;2023-02-26T08:38:30;97302.00;;;1.30
18219;BMP180;9234;49.344;11.120;2023-02-26T08:40:59;97318.00;;;1.40
18219;BMP180;9234;49.344;11.120;2023-02-26T08:43:28;97315.00;;;1.60
18219;BMP180;9234;49.344;11.120;2023-02-26T08:45:57;97326.00;;;1.70
18219;BMP180;9234;49.344;11.120;2023-02-26T08:48:26;97323.00;;;1.90
18219;BMP180;9234;49.344;11.120;2023-02-26T08:50:54;97326.00;;;2.00
18219;BMP180;9234;49.344;11.120;2023-02-26T08:53:22;97332.00;;;2.10
18219;BMP180;9234;49.344;11.120;2023-02-26T08:55:52;97338.00;;;2.20
18219;BMP180;9234;49.344;11.120;2023-02-26T08:58:22;97330.00;;;2.20
18219;BMP180;9234;49.344;11.120;2023-02-26T09:00:50;97343.00;;;2.20
18219;BMP180;9234;49.344;11.120;2023-02-26T09:03:18;97327.00;;;2.30
18219;BMP180;9234;49.344;11.120;2023-02-26T09:05:46;97333.00;;;2.30
18219;BMP180;9234;49.344;11.120;2023-02-26T09:08:15;97346.00;;;2.40
18219;BMP180;9234;49.344;11.120;2023-02-26T09:10:43;97367.00;;;2.60
18219;BMP180;9234;49.344;11.120;2023-02-26T09:13:11;97359.00;;;2.90
18219;BMP180;9234;49.344;11.120;2023-02-26T09:15:41;97364.00;;;3.10
18219;BMP180;9234;49.344;11.120;2023-02-26T09:18:10;97350.00;;;3.30
18219;BMP180;9234;49.344;11.120;2023-02-26T09:20:41;97357.00;;;3.50
18219;BMP180;9234;49.344;11.120;2023-02-26T09:23:10;97366.00;;;3.60
18219;BMP180;9234;49.344;11.120;2023-02-26T09:25:39;97362.00;;;3.70
18219;BMP180;9234;49.344;11.120;2023-02-26T09:28:07;97360.00;;;3.70
18219;BMP180;9234;49.344;11.120;2023-02-26T09:30:35;97381.00;;;3.80
18219;BMP180;9234;49.344;11.120;2023-02-26T09:33:05;97384.00;;;3.70
18219;BMP180;9234;49.344;11.120;2023-02-26T09:35:33;97383.00;;;3.70
18219;BMP180;9234;49.344;11.120;2023-02-26T09:38:01;97382.00;;;3.60
18219;BMP180;9234;49.344;11.120;2023-02-26T09:40:43;97399.00;;;3.70
18219;BMP180;9234;49.344;11.120;2023-02-26T09:46:41;97383.00;;;3.80
18219;BMP180;9234;49.344;11.120;2023-02-26T09:49:44;97394.00;;;4.00
18219;BMP180;9234;49.344;11.120;2023-02-26T09:52:22;97400.00;;;4.20
18219;BMP180;9234;49.344;11.120;2023-02-26T09:54:55;97405.00;;;4.30
18219;BMP180;9234;49.344;11.120;2023-02-26T09:57:30;97403.00;;;4.50
18219;BMP180;9234;49.344;11.120;2023-02-26T10:00:00;97399.00;;;4.70
18219;BMP180;9234;49.344;11.120;2023-02-26T10:02:50;97399.00;;;4.80
18219;BMP180;9234;49.344;11.120;2023-02-26T10:05:28;97391.00;;;4.90
18219;BMP180;9234;49.344;11.120;2023-02-26T10:08:06;97405.00;;;4.90
18219;BMP180;9234;49.344;11.120;2023-02-26T10:10:46;97423.00;;;5.00
18219;BMP180;9234;49.344;11.120;2023-02-26T10:13:34;97426.00;;;5.00
18219;BMP180;9234;49.344;11.120;2023-02-26T10:16:27;97432.00;;;5.00
18219;BMP180;9234;49.344;11.120;2023-02-26T10:19:03;97432.00;;;4.90
18219;BMP180;9234;49.344;11.120;2023-02-26T10:21:40;97438.00;;;4.70
18219;BMP180;9234;49.344;11.120;2023-02-26T10:24:14;97441.00;;;4.50
18219;BMP180;9234;49.344;11.120;2023-02-26T10:26:50;97451.00;;;4.50
18219;BMP180;9234;49.344;11.120;2023-02-26T10:29:27;97450.00;;;4.40
18219;BMP180;9234;49.344;11.120;2023-02-26T10:32:13;97456.00;;;4.40
18219;BMP180;9234;49.344;11.120;2023-02-26T10:34:53;97457.00;;;4.30
18219;BMP180;9234;49.344;11.120;2023-02-26T10:37:45;97455.00;;;4.30
18219;BMP180;9234;49.344;11.120;2023-02-26T10:40:19;97465.00;;;4.50
18219;BMP180;9234;49.344;11.120;2023-02-26T10:42:56;97459.00;;;4.70
18219;BMP180;9234;49.344;11.120;2023-02-26T10:45:40;97459.00;;;4.90
18219;BMP180;9234;49.344;11.120;2023-02-26T10:48:42;97467.00;;;5.20
18219;BMP180;9234;49.344;11.120;2023-02-26T10:51:14;97463.00;;;5.20
18219;BMP180;9234;49.344;11.120;2023-02-26T10:53:49;97461.00;;;5.30
18219;BMP180;9234;49.344;11.120;2023-02-26T10:56:23;97456.00;;;5.40
18219;BMP180;9234;49.344;11.120;2023-02-26T10:58:52;97446.00;;;5.40
18219;BMP180;9234;49.344;11.120;2023-02-26T11:01:23;97459.00;;;5.50
18219;BMP180;9234;49.344;11.120;2023-02-26T11:03:58;97457.00;;;5.70
18219;BMP180;9234;49.344;11.120;2023-02-26T11:06:33;97452.00;;;5.80
18219;BMP180;9234;49.344;11.120;2023-02-26T11:09:15;97468.00;;;5.90
18219;BMP180;9234;49.344;11.120;2023-02-26T11:11:47;97464.00;;;6.10
18219;BMP180;9234;49.344;11.120;2023-02-26T11:14:15;97467.00;;;6.10
18219;BMP180;9234;49.344;11.120;2023-02-26T11:16:52;97463.00;;;6.20
18219;BMP180;9234;49.344;11.120;2023-02-26T11:19:27;97460.00;;;6.30
18219;BMP180;9234;49.344;11.120;2023-02-26T11:21:58;97458.00;;;6.40
18219;BMP180;9234;49.344;11.120;2023-02-26T11:24:32;97445.00;;;6.60
18219;BMP180;9234;49.344;11.120;2023-02-26T11:35:28;97465.00;;;6.10
18219;BMP180;9234;49.344;11.120;2023-02-26T11:38:01;97467.00;;;5.80
18219;BMP180;9234;49.344;11.120;2023-02-26T11:40:37;97462.00;;;5.60
18219;BMP180;9234;49.344;11.120;2023-02-26T11:43:11;97470.00;;;5.70
18219;BMP180;9234;49.344;11.120;2023-02-26T11:45:44;97450.00;;;5.80
18219;BMP180;9234;49.344;11.120;2023-02-26T11:48:20;97435.00;;;6.10
18219;BMP180;9234;49.344;11.120;2023-02-26T11:50:54;97450.00;;;6.30
18219;BMP180;9234;49.344;11.120;2023-02-26T11:53:31;97455.00;;;6.70
18219;BMP180;9234;49.344;11.120;2023-02-26T11:56:09;97439.00;;;7.30
18219;BMP180;9234;49.344;11.120;2023-02-26T11:58:44;97445.00;;;7.70
18219;BMP180;9234;49.344;11.120;2023-02-26T12:01:15;97451.00;;;8.10
18219;BMP180;9234;49.344;11.120;2023-02-26T12:03:46;97442.00;;;8.00
18219;BMP180;9234;49.344;11.120;2023-02-26T12:10:17;97449.00;;;7.20
18219;BMP180;9234;49.344;11.120;2023-02-26T12:13:06;97451.00;;;6.80
18219;BMP180;9234;49.344;11.120;2023-02-26T12:15:47;97432.00;;;6.80
18219;BMP180;9234;49.344;11.120;2023-02-26T12:18:48;97440.00;;;6.80
18219;BMP180;9234;49.344;11.120;2023-02-26T12:21:50;97447.00;;;7.00
18219;BMP180;9234;49.344;11.120;2023-02-26T12:27:30;97441.00;;;8.00
18219;BMP180;9234;49.344;11.120;2023-02-26T12:30:33;97456.00;;;7.60
18219;BMP180;9234;49.344;11.120;2023-02-26T12:33:20;97446.00;;;7.30
18219;BMP180;9234;49.344;11.120;2023-02-26T12:36:22;97442.00;;;7.50
18219;BMP180;9234;49.344;11.120;2023-02-26T12:39:11;97446.00;;;8.70
18219;BMP180;9234;49.344;11.120;2023-02-26T12:42:02;97430.00;;;9.60
18219;BMP180;9234;49.344;11.120;2023-02-26T12:45:05;97426.00;;;10.60
18219;BMP180;9234;49.344;11.120;2023-02-26T12:47:51;97431.00;;;11.50
18219;BMP180;9234;49.344;11.120;2023-02-26T12:50:53;97440.00;;;11.00
18219;BMP180;9234;49.344;11.120;2023-02-26T12:53:43;97450.00;;;9.50
18219;BMP180;9234;49.344;11.120;2023-02-26T12:56:47;97435.00;;;8.30
18219;BMP180;9234;49.344;11.120;2023-02-26T12:59:46;97447.00;;;7.60
18219;BMP180;9234;49.344;11.120;2023-02-26T13:02:58;97451.00;;;7.20
18219;BMP180;9234;49.344;11.120;2023-02-26T13:05:59;97454.00;;;6.90
18219;BMP180;9234;49.344;11.120;2023-02-26T13:08:37;97456.00;;;7.00
18219;BMP180;9234;49.344;11.120;2023-02-26T13:11:25;97463.00;;;6.70
18219;BMP180;9234;49.344;11.120;2023-02-26T13:14:20;97462.00;;;6.30
18219;BMP180;9234;49.344;11.120;2023-02-26T13:16:56;97469.00;;;6.80
18219;BMP180;9234;49.344;11.120;2023-02-26T13:19:38;97470.00;;;7.30
18219;BMP180;9234;49.344;11.120;2023-02-26T13:22:19;97490.00;;;8.30
18219;BMP180;9234;49.344;11.120;2023-02-26T13:24:56;97475.00;;;8.20
18219;BMP180;9234;49.344;11.120;2023-02-26T13:27:37;97472.00;;;7.60
18219;BMP180;9234;49.344;11.120;2023-02-26T13:30:20;97469.00;;;6.90
18219;BMP180;9234;49.344;11.120;2023-02-26T13:32:53;97459.00;;;6.50
18219;BMP180;9234;49.344;11.120;2023-02-26T13:35:29;97479.00;;;6.30
18219;BMP180;9234;49.344;11.120;2023-02-26T13:38:06;97478.00;;;6.10
18219;BMP180;9234;49.344;11.120;2023-02-26T13:40:53;97461.00;;;6.10
18219;BMP180;9234;49.344;11.120;2023-02-26T13:43:40;97473.00;;;7.30
18219;BMP180;9234;49.344;11.120;2023-02-26T13:46:32;97459.00;;;8.90
18219;BMP180;9234;49.344;11.120;2023-02-26T13:49:15;97472.00;;;10.40
18219;BMP180;9234;49.344;11.120;2023-02-26T13:51:50;97458.00;;;10.80
18219;BMP180;9234;49.344;11.120;2023-02-26T13:54:41;97478.00;;;10.00
18219;BMP180;9234;49.344;11.120;2023-02-26T13:57:25;97486.00;;;8.80
18219;BMP180;9234;49.344;11.120;2023-02-26T14:00:07;97497.00;;;7.90
18219;BMP180;9234;49.344;11.120;2023-02-26T14:02:52;97491.00;;;7.60
18219;BMP180;9234;49.344;11.120;2023-02-26T14:08:52;97495.00;;;8.20
18219;BMP180;9234;49.344;11.120;2023-02-26T14:11:42;97486.00;;;7.80
18219;BMP180;9234;49.344;11.120;2023-02-26T14:14:38;97497.00;;;7.30
18219;BMP180;9234;49.344;11.120;2023-02-26T14:17:34;97504.00;;;7.40
18219;BMP180;9234;49.344;11.120;2023-02-26T14:20:23;97495.00;;;8.10
18219;BMP180;9234;49.344;11.120;2023-02-26T14:23:12;97493.00;;;8.80
18219;BMP180;9234;49.344;11.120;2023-02-26T14:25:47;97491.00;;;9.00
18219;BMP180;9234;49.344;11.120;2023-02-26T14:28:57;97500.00;;;8.30
18219;BMP180;9234;49.344;11.120;2023-02-26T14:34:49;97518.00;;;6.90
18219;BMP180;9234;49.344;11.120;2023-02-26T14:37:22;97523.00;;;6.40
18219;BMP180;9234;49.344;11.120;2023-02-26T14:39:56;97524.00;;;6.00
18219;BMP180;9234;49.344;11.120;2023-02-26T14:42:34;97523.00;;;5.70
18219;BMP180;9234;49.344;11.120;2023-02-26T14:45:26;97533.00;;;5.60
18219;BMP180;9234;49.344;11.120;2023-02-26T14:47:58;97535.00;;;5.60
18219;BMP180;9234;49.344;11.120;2023-02-26T14:50:39;97537.00;;;5.80
18219;BMP180;9234;49.344;11.120;2023-02-26T14:56:49;97532.00;;;6.80
18219;BMP180;9234;49.344;11.120;2023-02-26T14:59:49;97531.00;;;6.90
18219;BMP180;9234;49.344;11.120;2023-02-26T15:02:28;97543.00;;;6.60
18219;BMP180;9234;49.344;11.120;2023-02-26T15:05:22;97538.00;;;6.30
18219;BMP180;9234;49.344;11.120;2023-02-26T15:11:41;97554.00;;;5.50
18219;BMP180;9234;49.344;11.120;2023-02-26T15:14:34;97554.00;;;5.30
18219;BMP180;9234;49.344;11.120;2023-02-26T15:17:20;97550.00;;;5.20
18219;BMP180;9234;49.344;11.120;2023-02-26T15:20:08;97566.00;;;5.10
18219;BMP180;9234;49.344;11.120;2023-02-26T15:23:00;97552.00;;;4.90
18219;BMP180;9234;49.344;11.120;2023-02-26T15:25:34;97572.00;;;5.00
18219;BMP180;9234;49.344;11.120;2023-02-26T15:28:09;97577.00;;;4.80
18219;BMP180;9234;49.344;11.120;2023-02-26T15:30:47;97576.00;;;4.60
18219;BMP180;9234;49.344;11.120;2023-02-26T15:33:19;97583.00;;;4.30
18219;BMP180;9234;49.344;11.120;2023-02-26T15:35:48;97603.00;;;4.20
18219;BMP180;9234;49.344;11.120;2023-02-26T15:38:18;97594.00;;;4.20
18219;BMP180;9234;49.344;11.120;2023-02-26T15:40:49;97603.00;;;4.10